createdAt,value
2019-03-21T00:00:50.165Z,61.58
2019-03-21T00:03:13.832Z,62.21
2019-03-21T00:05:43.636Z,62.04
2019-03-21T00:08:13.679Z,61.69
2019-03-21T00:11:28.098Z,62.19
2019-03-21T00:14:06.905Z,62.19
2019-03-21T00:16:32.652Z,61.79
2019-03-21T00:19:02.450Z,61.15
2019-03-21T00:21:32.241Z,61.11
2019-03-21T00:24:02.037Z,61.76
2019-03-21T00:26:31.889Z,61.75
2019-03-21T00:29:01.657Z,61.67
2019-03-21T00:31:31.453Z,61.15
2019-03-21T00:34:01.222Z,61.60
2019-03-21T00:36:31.038Z,61.46
2019-03-21T00:39:00.845Z,61.95
2019-03-21T00:41:45.000Z,61.75
2019-03-21T00:44:18.078Z,62.16
2019-03-21T00:46:41.841Z,62.82
2019-03-21T00:49:11.637Z,61.72
2019-03-21T00:51:41.470Z,61.83
2019-03-21T00:54:11.242Z,62.07
2019-03-21T00:56:41.061Z,62.32
2019-03-21T00:59:10.869Z,61.91
2019-03-21T01:01:40.693Z,62.11
2019-03-21T01:04:10.497Z,61.81
2019-03-21T01:06:40.277Z,61.83
2019-03-21T01:09:11.477Z,61.47
2019-03-21T01:11:41.267Z,61.61
2019-03-21T01:14:11.042Z,62.27
2019-03-21T01:16:40.814Z,62.03
2019-03-21T01:19:10.606Z,62.74
2019-03-21T01:21:40.415Z,63.03
2019-03-21T01:24:10.226Z,62.40
2019-03-21T01:26:39.993Z,62.40
2019-03-21T01:29:09.784Z,62.06
2019-03-21T01:31:39.581Z,62.11
2019-03-21T01:34:09.391Z,62.01
2019-03-21T01:36:39.210Z,62.39
2019-03-21T01:39:09.018Z,62.16
2019-03-21T01:41:38.834Z,62.43
2019-03-21T01:44:08.619Z,62.67
2019-03-21T01:46:38.416Z,62.62
2019-03-21T01:49:08.188Z,63.04
2019-03-21T01:51:37.983Z,63.57
2019-03-21T01:54:07.797Z,63.41
2019-03-21T01:56:37.615Z,63.74
2019-03-21T01:59:07.382Z,63.76
2019-03-21T02:01:37.221Z,63.56
2019-03-21T02:04:07.072Z,63.23
2019-03-21T02:06:36.873Z,63.80
2019-03-21T02:09:09.375Z,64.35
2019-03-21T02:11:40.590Z,64.69
2019-03-21T02:14:10.904Z,64.07
2019-03-21T02:16:40.666Z,64.39
2019-03-21T02:19:10.481Z,64.17
2019-03-21T02:21:40.298Z,64.50
2019-03-21T02:24:10.573Z,64.69
2019-03-21T02:26:40.419Z,65.24
2019-03-21T02:29:10.181Z,64.83
2019-03-21T02:31:39.969Z,64.45
2019-03-21T02:34:09.822Z,64.31
2019-03-21T02:36:39.636Z,65.50
2019-03-21T02:39:09.425Z,65.69
2019-03-21T02:41:39.232Z,65.11
2019-03-21T02:44:09.055Z,65.61
2019-03-21T02:46:38.829Z,65.09
2019-03-21T02:49:08.631Z,64.74
2019-03-21T02:51:38.516Z,64.31
2019-03-21T02:54:08.285Z,64.39
2019-03-21T02:56:38.092Z,64.38
2019-03-21T02:59:07.887Z,64.56
2019-03-21T03:01:37.765Z,64.57
2019-03-21T03:04:07.545Z,64.28
2019-03-21T03:06:37.362Z,64.40
2019-03-21T03:09:09.339Z,64.01
2019-03-21T03:11:39.137Z,63.68
2019-03-21T03:14:08.944Z,63.67
2019-03-21T03:16:38.743Z,63.42
2019-03-21T03:19:08.529Z,62.76
2019-03-21T03:21:38.350Z,63.10
2019-03-21T03:24:09.022Z,62.29
2019-03-21T03:26:38.786Z,63.01
2019-03-21T03:29:08.677Z,62.41
2019-03-21T03:31:38.455Z,62.67
2019-03-21T03:34:08.241Z,62.84
2019-03-21T03:36:38.024Z,62.80
2019-03-21T03:39:08.918Z,62.65
2019-03-21T03:41:38.811Z,63.01
2019-03-21T03:44:08.595Z,62.77
2019-03-21T03:46:38.698Z,62.91
2019-03-21T03:49:08.487Z,63.41
2019-03-21T03:51:38.341Z,63.28
2019-03-21T03:54:08.119Z,64.27
2019-03-21T03:56:37.940Z,64.31
2019-03-21T03:59:07.933Z,65.47
2019-03-21T04:01:37.755Z,65.52
2019-03-21T04:04:07.540Z,65.79
2019-03-21T04:06:37.340Z,65.71
2019-03-21T04:09:08.402Z,65.74
2019-03-21T04:11:38.423Z,66.36
2019-03-21T04:14:08.207Z,66.03
2019-03-21T04:16:37.996Z,65.58
2019-03-21T04:19:07.804Z,65.35
2019-03-21T04:21:37.640Z,66.17
2019-03-21T04:24:07.428Z,66.48
2019-03-21T04:26:37.309Z,66.88
2019-03-21T04:29:07.080Z,66.69
2019-03-21T04:31:36.856Z,67.00
2019-03-21T04:34:07.762Z,67.51
2019-03-21T04:36:37.532Z,67.71
2019-03-21T04:39:09.010Z,67.61
2019-03-21T04:41:39.531Z,67.29
2019-03-21T04:44:09.324Z,67.44
2019-03-21T04:46:39.091Z,67.88
2019-03-21T04:49:10.907Z,68.41
2019-03-21T04:51:40.762Z,68.54
2019-03-21T04:54:10.552Z,68.73
2019-03-21T04:56:40.405Z,68.64
2019-03-21T04:59:10.219Z,69.03
2019-03-21T05:01:39.974Z,69.46
2019-03-21T05:04:09.800Z,69.60
2019-03-21T05:06:39.585Z,69.23
2019-03-21T05:09:12.642Z,69.16
2019-03-21T05:11:42.447Z,68.57
2019-03-21T05:14:12.227Z,68.31
2019-03-21T05:16:42.034Z,68.15
2019-03-21T05:19:11.819Z,68.01
2019-03-21T05:21:41.644Z,67.61
2019-03-21T05:24:11.429Z,68.43
2019-03-21T05:26:41.230Z,68.57
2019-03-21T05:29:11.000Z,67.57
2019-03-21T05:31:40.831Z,67.13
2019-03-21T05:34:10.626Z,66.77
2019-03-21T05:36:40.410Z,66.29
2019-03-21T05:39:11.179Z,66.15
2019-03-21T05:41:40.952Z,66.13
2019-03-21T05:44:19.282Z,65.74
2019-03-21T05:46:49.098Z,65.75
2019-03-21T05:49:19.153Z,66.20
2019-03-21T05:51:49.610Z,66.94
2019-03-21T05:54:19.927Z,65.96
2019-03-21T05:56:50.233Z,66.43
2019-03-21T05:59:20.202Z,65.71
2019-03-21T06:01:51.448Z,65.41
2019-03-21T06:04:21.426Z,64.92
2019-03-21T06:07:24.914Z,63.72
2019-03-21T06:09:54.773Z,63.57
2019-03-21T06:12:24.839Z,63.52
2019-03-21T06:14:58.053Z,63.54
2019-03-21T06:17:28.510Z,63.44
2019-03-21T06:20:20.331Z,63.71
2019-03-21T06:23:26.378Z,62.75
2019-03-21T06:26:10.942Z,62.54
2019-03-21T06:28:41.009Z,62.19
2019-03-21T06:31:11.031Z,61.92
2019-03-21T06:33:41.172Z,62.12
2019-03-21T06:36:11.308Z,62.13
2019-03-21T06:38:41.293Z,62.05
2019-03-21T06:41:11.729Z,61.55
2019-03-21T06:43:41.847Z,60.63
2019-03-21T06:46:12.327Z,61.03
2019-03-21T06:48:42.290Z,61.23
2019-03-21T06:51:12.126Z,60.86
2019-03-21T06:53:42.454Z,60.28
2019-03-21T06:56:12.306Z,60.45
2019-03-21T06:58:42.089Z,60.27
2019-03-21T07:01:11.963Z,59.65
2019-03-21T07:03:41.755Z,60.46
2019-03-21T07:06:11.558Z,60.74
2019-03-21T07:08:41.413Z,59.66
2019-03-21T07:11:11.204Z,59.24
2019-03-21T07:13:41.006Z,58.42
2019-03-21T07:16:10.813Z,57.60
2019-03-21T07:18:40.606Z,56.59
2019-03-21T07:21:10.516Z,55.57
2019-03-21T07:23:40.364Z,53.68
2019-03-21T07:26:10.159Z,50.57
2019-03-21T07:28:40.032Z,45.37
2019-03-21T07:31:11.400Z,38.13
2019-03-21T07:33:49.618Z,36.98
2019-03-21T07:36:19.434Z,33.80
2019-03-21T07:38:49.221Z,32.33
2019-03-21T07:41:19.022Z,32.60
2019-03-21T07:43:48.809Z,30.86
2019-03-21T07:46:18.639Z,29.41
2019-03-21T07:48:48.447Z,29.44
2019-03-21T07:51:18.242Z,32.27
2019-03-21T07:53:48.063Z,32.80
2019-03-21T07:56:17.826Z,33.05
2019-03-21T07:58:47.635Z,35.04
2019-03-21T08:01:17.434Z,33.77
2019-03-21T08:03:47.244Z,34.11
2019-03-21T08:06:17.033Z,27.21
2019-03-21T08:08:46.845Z,30.29
2019-03-21T08:11:16.621Z,27.99
2019-03-21T08:13:46.454Z,30.52
2019-03-21T08:16:16.258Z,31.25
2019-03-21T08:18:46.126Z,27.68
2019-03-21T08:21:15.942Z,30.41
2019-03-21T08:23:45.731Z,29.15
2019-03-21T08:26:15.551Z,29.79
2019-03-21T08:28:45.376Z,27.36
2019-03-21T08:31:18.830Z,24.24
2019-03-21T08:33:48.620Z,26.59
2019-03-21T08:36:18.452Z,24.72
2019-03-21T08:38:48.295Z,27.72
2019-03-21T08:41:18.076Z,25.00
2019-03-21T08:43:47.904Z,26.06
2019-03-21T08:46:17.705Z,24.50
2019-03-21T08:48:47.522Z,24.08
2019-03-21T08:51:17.338Z,23.99
2019-03-21T08:53:47.140Z,26.54
2019-03-21T08:56:17.449Z,23.19
2019-03-21T08:58:47.258Z,24.09
2019-03-21T09:01:17.054Z,23.23
2019-03-21T09:03:46.848Z,26.10
2019-03-21T09:06:16.667Z,25.62
2019-03-21T09:08:46.483Z,25.77
2019-03-21T09:11:16.311Z,26.69
2019-03-21T09:13:46.103Z,25.46
2019-03-21T09:16:15.909Z,28.37
2019-03-21T09:18:45.702Z,29.58
2019-03-21T09:21:19.985Z,26.78
2019-03-21T09:23:47.008Z,25.30
2019-03-21T09:26:16.835Z,25.55
2019-03-21T09:28:46.619Z,23.54
2019-03-21T09:31:16.416Z,24.59
2019-03-21T09:33:46.227Z,26.49
2019-03-21T09:36:16.021Z,27.36
2019-03-21T09:38:45.846Z,26.99
2019-03-21T09:41:15.626Z,26.01
2019-03-21T09:43:45.497Z,24.49
2019-03-21T09:46:15.331Z,20.34
2019-03-21T09:48:45.123Z,21.75
2019-03-21T09:51:14.930Z,22.60
2019-03-21T09:53:44.741Z,21.47
2019-03-21T09:56:14.580Z,20.56
2019-03-21T09:58:44.447Z,20.75
2019-03-21T10:01:14.282Z,21.52
2019-03-21T10:03:44.075Z,23.44
2019-03-21T10:06:13.851Z,23.85
2019-03-21T10:08:43.680Z,24.26
2019-03-21T10:11:13.455Z,24.69
2019-03-21T10:13:43.312Z,25.23
2019-03-21T10:16:13.161Z,23.58
2019-03-21T10:18:52.872Z,22.73
2019-03-21T10:21:22.688Z,23.98
2019-03-21T10:23:52.463Z,22.61
2019-03-21T10:26:22.309Z,22.41
2019-03-21T10:28:52.127Z,23.99
2019-03-21T10:31:21.914Z,24.34
2019-03-21T10:33:51.763Z,25.39
2019-03-21T10:36:21.567Z,24.93
2019-03-21T10:38:51.345Z,23.22
2019-03-21T10:41:21.163Z,25.15
2019-03-21T10:43:50.941Z,24.62
2019-03-21T10:46:20.793Z,23.10
2019-03-21T10:48:50.599Z,22.82
2019-03-21T10:51:20.401Z,23.29
2019-03-21T10:53:50.178Z,23.47
2019-03-21T10:56:19.988Z,22.09
2019-03-21T10:58:49.795Z,21.30
2019-03-21T11:01:19.573Z,22.68
2019-03-21T11:03:49.383Z,22.57
2019-03-21T11:06:19.167Z,21.57
2019-03-21T11:08:49.242Z,21.08
2019-03-21T11:11:19.021Z,20.91
2019-03-21T11:13:48.862Z,20.71
2019-03-21T11:16:18.702Z,22.76
2019-03-21T11:18:48.498Z,22.68
2019-03-21T11:21:18.334Z,23.80
2019-03-21T11:23:48.113Z,23.43
2019-03-21T11:26:17.915Z,22.78
2019-03-21T11:28:47.727Z,22.79
2019-03-21T11:31:17.539Z,23.23
2019-03-21T11:33:47.326Z,23.57
2019-03-21T11:36:17.129Z,23.71
2019-03-21T11:38:46.919Z,21.98
2019-03-21T11:41:24.131Z,21.23
2019-03-21T11:43:53.950Z,20.57
2019-03-21T11:46:23.761Z,19.74
2019-03-21T11:48:53.616Z,20.23
2019-03-21T11:51:23.382Z,19.05
2019-03-21T11:53:53.192Z,18.18
2019-03-21T11:56:23.020Z,18.16
2019-03-21T11:58:52.847Z,17.22
2019-03-21T12:01:22.659Z,18.88
2019-03-21T12:03:52.614Z,18.55
2019-03-21T12:06:22.466Z,18.40
2019-03-21T12:08:52.236Z,18.27
2019-03-21T12:11:22.036Z,18.37
2019-03-21T12:13:51.820Z,18.39
2019-03-21T12:16:21.631Z,18.73
2019-03-21T12:18:51.411Z,18.11
2019-03-21T12:21:21.241Z,16.67
2019-03-21T12:23:51.065Z,17.35
2019-03-21T12:26:20.853Z,18.19
2019-03-21T12:28:50.660Z,17.30
2019-03-21T12:31:20.454Z,16.57
2019-03-21T12:33:50.249Z,16.43
2019-03-21T12:36:20.028Z,18.71
2019-03-21T12:38:49.839Z,17.27
2019-03-21T12:41:19.636Z,17.52
2019-03-21T12:43:49.419Z,17.02
2019-03-21T12:46:19.206Z,15.96
2019-03-21T12:49:00.212Z,16.07
2019-03-21T12:51:30.037Z,15.31
2019-03-21T12:53:59.820Z,16.66
2019-03-21T12:56:29.682Z,18.11
2019-03-21T12:58:59.555Z,17.73
2019-03-21T13:01:29.370Z,17.88
2019-03-21T13:03:59.159Z,17.91
2019-03-21T13:06:28.939Z,18.89
2019-03-21T13:08:58.763Z,20.25
2019-03-21T13:11:28.543Z,20.33
2019-03-21T13:13:58.347Z,20.19
2019-03-21T13:16:28.134Z,20.28
2019-03-21T13:18:57.960Z,21.07
2019-03-21T13:21:27.734Z,21.39
2019-03-21T13:23:57.552Z,21.39
2019-03-21T13:26:27.333Z,20.65
2019-03-21T13:28:57.125Z,21.10
2019-03-21T13:31:26.973Z,21.10
2019-03-21T13:33:56.796Z,21.76
2019-03-21T13:36:26.620Z,21.98
2019-03-21T13:38:56.404Z,22.55
2019-03-21T13:41:26.212Z,21.64
2019-03-21T13:43:56.528Z,21.55
2019-03-21T13:46:26.351Z,21.89
2019-03-21T13:48:56.155Z,21.20
2019-03-21T13:51:25.948Z,20.85
2019-03-21T13:53:55.767Z,20.94
2019-03-21T13:56:25.591Z,21.02
2019-03-21T13:58:55.414Z,21.30
2019-03-21T14:01:25.205Z,20.88
2019-03-21T14:03:56.682Z,20.57
2019-03-21T14:06:26.479Z,20.69
2019-03-21T14:08:56.286Z,19.78
2019-03-21T14:11:26.343Z,20.90
2019-03-21T14:13:56.132Z,21.19
2019-03-21T14:16:25.922Z,20.91
2019-03-21T14:18:55.725Z,20.96
2019-03-21T14:21:25.565Z,20.52
2019-03-21T14:23:55.348Z,19.79
2019-03-21T14:26:25.716Z,20.68
2019-03-21T14:28:55.522Z,20.99
2019-03-21T14:31:25.303Z,20.85
2019-03-21T14:33:55.116Z,20.34
2019-03-21T14:36:24.896Z,19.83
2019-03-21T14:38:54.731Z,19.70
2019-03-21T14:41:24.543Z,20.09
2019-03-21T14:43:54.348Z,19.96
2019-03-21T14:46:24.155Z,19.84
2019-03-21T14:48:53.941Z,20.07
2019-03-21T14:51:23.753Z,19.90
2019-03-21T14:53:53.540Z,19.69
2019-03-21T14:56:23.348Z,19.81
2019-03-21T14:58:53.132Z,20.15
2019-03-21T15:01:22.911Z,19.92
2019-03-21T15:03:52.716Z,20.37
2019-03-21T15:06:22.502Z,20.46
2019-03-21T15:09:01.531Z,20.94
2019-03-21T15:11:31.304Z,20.81
2019-03-21T15:14:01.135Z,21.39
2019-03-21T15:16:30.989Z,21.37
2019-03-21T15:19:00.815Z,21.72
2019-03-21T15:21:30.614Z,21.63
2019-03-21T15:24:00.421Z,21.64
2019-03-21T15:26:30.203Z,21.92
2019-03-21T15:29:00.073Z,22.37
2019-03-21T15:31:29.902Z,22.69
2019-03-21T15:33:59.695Z,22.38
2019-03-21T15:36:29.486Z,22.52
2019-03-21T15:38:59.286Z,22.87
2019-03-21T15:41:29.079Z,23.11
2019-03-21T15:43:58.878Z,22.97
2019-03-21T15:46:28.682Z,23.32
2019-03-21T15:48:58.506Z,23.42
2019-03-21T15:51:28.278Z,23.48
2019-03-21T15:53:58.054Z,23.86
2019-03-21T15:56:27.865Z,24.02
2019-03-21T15:58:57.662Z,24.20
2019-03-21T16:01:28.808Z,24.08
2019-03-21T16:03:58.592Z,24.26
2019-03-21T16:06:28.554Z,24.43
2019-03-21T16:08:58.356Z,24.56
2019-03-21T16:11:28.593Z,24.67
2019-03-21T16:13:59.521Z,24.73
2019-03-21T16:16:30.420Z,24.71
2019-03-21T16:19:01.956Z,24.93
2019-03-21T16:21:33.291Z,24.95
2019-03-21T16:24:05.884Z,25.32
2019-03-21T16:26:37.408Z,25.59
2019-03-21T16:29:10.325Z,25.50
2019-03-21T16:31:41.900Z,25.21
2019-03-21T16:34:13.321Z,25.59
2019-03-21T16:36:44.751Z,25.74
2019-03-21T16:39:16.133Z,25.58
2019-03-21T16:41:47.692Z,26.00
2019-03-21T16:44:19.201Z,26.13
2019-03-21T16:46:50.760Z,26.31
2019-03-21T16:49:23.272Z,25.86
2019-03-21T16:51:54.819Z,26.19
2019-03-21T16:54:26.244Z,26.52
2019-03-21T16:56:57.748Z,26.51
2019-03-21T16:59:29.250Z,26.75
2019-03-21T17:02:00.489Z,26.78
2019-03-21T17:04:31.162Z,27.13
2019-03-21T17:07:01.622Z,27.16
2019-03-21T17:09:32.929Z,27.47
2019-03-21T17:12:04.007Z,27.49
2019-03-21T17:14:38.465Z,27.57
2019-03-21T17:17:09.736Z,27.92
2019-03-21T17:19:40.049Z,27.87
2019-03-21T17:22:09.902Z,27.29
2019-03-21T17:24:39.722Z,27.81
2019-03-21T17:27:09.527Z,27.60
2019-03-21T17:29:39.316Z,27.76
2019-03-21T17:32:09.121Z,28.00
2019-03-21T17:34:39.001Z,28.14
2019-03-21T17:37:08.842Z,28.23
2019-03-21T17:39:38.642Z,28.39
2019-03-21T17:42:08.424Z,28.42
2019-03-21T17:44:38.205Z,29.22
2019-03-21T17:47:08.047Z,29.47
2019-03-21T17:49:37.903Z,29.15
2019-03-21T17:52:07.700Z,29.56
2019-03-21T17:54:41.716Z,29.86
2019-03-21T17:57:09.513Z,29.76
2019-03-21T17:59:39.305Z,30.37
2019-03-21T18:02:09.213Z,30.49
2019-03-21T18:04:40.114Z,31.54
2019-03-21T18:07:10.783Z,31.71
2019-03-21T18:09:40.604Z,32.67
2019-03-21T18:12:10.673Z,32.97
2019-03-21T18:14:40.788Z,33.24
2019-03-21T18:17:10.885Z,33.72
2019-03-21T18:19:41.099Z,33.66
2019-03-21T18:22:15.910Z,34.08
2019-03-21T18:24:53.768Z,34.77
2019-03-21T18:27:17.298Z,35.00
2019-03-21T18:29:47.153Z,35.22
2019-03-21T18:32:16.934Z,35.55
2019-03-21T18:34:47.188Z,35.06
2019-03-21T18:37:20.479Z,34.47
2019-03-21T18:39:57.488Z,34.79
2019-03-21T18:42:40.556Z,36.03
2019-03-21T18:45:11.184Z,35.62
2019-03-21T18:47:41.595Z,35.64
2019-03-21T18:50:12.448Z,35.44
2019-03-21T18:52:42.400Z,36.80
2019-03-21T18:55:12.561Z,37.00
2019-03-21T18:57:42.499Z,36.90
2019-03-21T19:00:13.289Z,37.90
2019-03-21T19:02:43.350Z,37.62
2019-03-21T19:05:13.397Z,37.57
2019-03-21T19:07:43.329Z,38.04
2019-03-21T19:10:15.328Z,38.17
2019-03-21T19:12:45.221Z,38.82
2019-03-21T19:15:15.471Z,39.11
2019-03-21T19:17:46.216Z,38.22
2019-03-21T19:20:16.764Z,37.36
2019-03-21T19:22:46.656Z,37.16
2019-03-21T19:25:19.012Z,37.47
2019-03-21T19:27:48.937Z,37.65
2019-03-21T19:30:20.128Z,38.44
2019-03-21T19:32:50.105Z,37.89
2019-03-21T19:35:21.747Z,38.12
2019-03-21T19:37:51.634Z,38.72
2019-03-21T19:40:22.709Z,37.97
2019-03-21T19:42:52.593Z,38.12
2019-03-21T19:45:22.638Z,38.68
2019-03-21T19:47:52.583Z,39.18
2019-03-21T19:50:23.058Z,39.18
2019-03-21T19:52:52.926Z,39.16
2019-03-21T19:55:30.806Z,39.92
2019-03-21T19:57:54.926Z,39.25
2019-03-21T20:00:40.626Z,39.24
2019-03-21T20:03:11.899Z,39.44
2019-03-21T20:05:42.768Z,41.33
2019-03-21T20:08:13.457Z,42.85
2019-03-21T20:10:43.746Z,42.55
2019-03-21T20:13:13.654Z,42.20
2019-03-21T20:15:43.624Z,41.48
2019-03-21T20:18:13.512Z,42.69
2019-03-21T20:20:43.398Z,42.62
2019-03-21T20:23:13.738Z,44.19
2019-03-21T20:25:43.570Z,44.91
2019-03-21T20:28:13.692Z,44.64
2019-03-21T20:30:43.631Z,44.99
2019-03-21T20:33:13.442Z,44.71
2019-03-21T20:35:43.453Z,44.68
2019-03-21T20:38:13.469Z,43.75
2019-03-21T20:40:43.308Z,43.47
2019-03-21T20:43:13.176Z,43.00
2019-03-21T20:45:43.056Z,43.63
2019-03-21T20:48:13.083Z,44.22
2019-03-21T20:50:42.868Z,46.55
2019-03-21T20:53:14.180Z,44.97
2019-03-21T20:55:53.450Z,45.17
2019-03-21T20:58:16.749Z,44.53
2019-03-21T21:00:46.639Z,44.54
2019-03-21T21:03:16.610Z,44.67
2019-03-21T21:05:46.596Z,44.34
2019-03-21T21:08:16.868Z,45.64
2019-03-21T21:10:46.732Z,46.42
2019-03-21T21:13:17.422Z,46.37
2019-03-21T21:15:48.249Z,45.64
2019-03-21T21:18:19.802Z,46.34
2019-03-21T21:20:49.686Z,47.80
2019-03-21T21:23:19.698Z,47.01
2019-03-21T21:25:49.485Z,47.75
2019-03-21T21:28:19.326Z,47.64
2019-03-21T21:30:49.884Z,48.13
2019-03-21T21:33:20.484Z,48.57
2019-03-21T21:35:51.266Z,48.49
2019-03-21T21:38:21.077Z,48.87
2019-03-21T21:40:51.023Z,49.14
2019-03-21T21:43:21.047Z,49.17
2019-03-21T21:45:50.957Z,49.67
2019-03-21T21:48:20.963Z,49.88
2019-03-21T21:50:50.997Z,50.21
2019-03-21T21:53:20.935Z,50.29
2019-03-21T21:55:50.962Z,50.25
2019-03-21T21:58:21.255Z,50.88
2019-03-21T22:00:51.313Z,51.05
2019-03-21T22:03:38.283Z,51.88
2019-03-21T22:06:08.329Z,51.87
2019-03-21T22:08:38.283Z,50.75
2019-03-21T22:11:08.196Z,51.12
2019-03-21T22:13:38.118Z,51.36
2019-03-21T22:16:10.081Z,52.17
2019-03-21T22:18:39.736Z,51.79
2019-03-21T22:21:09.618Z,52.06
2019-03-21T22:23:39.568Z,51.84
2019-03-21T22:26:09.487Z,51.28
2019-03-21T22:28:39.482Z,51.53
2019-03-21T22:31:09.364Z,52.00
2019-03-21T22:33:39.150Z,52.06
2019-03-21T22:36:09.406Z,52.61
2019-03-21T22:38:39.262Z,52.21
2019-03-21T22:41:09.516Z,52.65
2019-03-21T22:43:39.349Z,52.62
2019-03-21T22:46:09.848Z,52.42
2019-03-21T22:48:40.051Z,53.03
2019-03-21T22:51:10.222Z,53.12
2019-03-21T22:53:40.041Z,53.27
2019-03-21T22:56:09.850Z,53.91
2019-03-21T22:58:39.661Z,55.02
2019-03-21T23:01:10.082Z,55.67
2019-03-21T23:03:39.894Z,56.34
2019-03-21T23:06:09.869Z,55.90
2019-03-21T23:08:39.720Z,55.47
2019-03-21T23:11:09.869Z,54.96
2019-03-21T23:13:39.639Z,55.88
2019-03-21T23:16:09.435Z,55.59
2019-03-21T23:18:39.456Z,56.18
2019-03-21T23:21:09.366Z,55.89
2019-03-21T23:23:39.299Z,55.71
2019-03-21T23:26:09.310Z,57.03
2019-03-21T23:28:39.110Z,56.66
2019-03-21T23:31:08.966Z,56.71
2019-03-21T23:33:38.806Z,56.45
2019-03-21T23:36:08.555Z,56.38
2019-03-21T23:38:38.367Z,57.47
2019-03-21T23:41:08.151Z,57.14
2019-03-21T23:43:37.968Z,56.47
2019-03-21T23:46:07.746Z,56.80
2019-03-21T23:48:37.589Z,56.70
2019-03-21T23:51:07.385Z,56.31
2019-03-21T23:53:37.180Z,56.67
2019-03-21T23:56:06.986Z,56.54
2019-03-21T23:58:36.772Z,56.70
